sensor_id;sensor_type;location;lat;lon;timestamp;P1;durP1;ratioP1;P2;durP2;ratioP2
68074;SDS011;54864;52.002;5.468;2023-07-22T00:00:13;15.15;;;10.07;;
68074;SDS011;54864;52.002;5.468;2023-07-22T00:01:15;13.93;;;9.40;;
68074;SDS011;54864;52.002;5.468;2023-07-22T00:02:17;13.10;;;9.15;;
68074;SDS011;54864;52.002;5.468;2023-07-22T00:03:18;15.00;;;10.20;;
68074;SDS011;54864;52.002;5.468;2023-07-22T00:04:25;13.82;;;9.25;;
68074;SDS011;54864;52.002;5.468;2023-07-22T00:05:27;15.95;;;10.25;;
68074;SDS011;54864;52.002;5.468;2023-07-22T00:06:29;16.10;;;10.57;;
68074;SDS011;54864;52.002;5.468;2023-07-22T00:07:30;16.17;;;10.50;;
68074;SDS011;54864;52.002;5.468;2023-07-22T00:08:38;14.05;;;10.10;;
68074;SDS011;54864;52.002;5.468;2023-07-22T00:09:39;15.83;;;9.77;;
68074;SDS011;54864;52.002;5.468;2023-07-22T00:10:42;14.13;;;10.30;;
68074;SDS011;54864;52.002;5.468;2023-07-22T00:11:42;13.50;;;9.70;;
68074;SDS011;54864;52.002;5.468;2023-07-22T00:12:44;16.25;;;10.95;;
68074;SDS011;54864;52.002;5.468;2023-07-22T00:13:45;13.55;;;9.77;;
68074;SDS011;54864;52.002;5.468;2023-07-22T00:14:47;13.73;;;9.65;;
68074;SDS011;54864;52.002;5.468;2023-07-22T00:15:49;13.60;;;10.00;;
68074;SDS011;54864;52.002;5.468;2023-07-22T00:16:50;13.60;;;9.88;;
68074;SDS011;54864;52.002;5.468;2023-07-22T00:17:51;14.68;;;10.25;;
68074;SDS011;54864;52.002;5.468;2023-07-22T00:18:53;13.07;;;10.18;;
68074;SDS011;54864;52.002;5.468;2023-07-22T00:19:54;16.15;;;11.00;;
68074;SDS011;54864;52.002;5.468;2023-07-22T00:20:55;14.73;;;10.00;;
68074;SDS011;54864;52.002;5.468;2023-07-22T00:21:56;14.52;;;10.25;;
68074;SDS011;54864;52.002;5.468;2023-07-22T00:22:58;16.65;;;10.30;;
68074;SDS011;54864;52.002;5.468;2023-07-22T00:23:59;15.80;;;10.77;;
68074;SDS011;54864;52.002;5.468;2023-07-22T00:25:01;15.02;;;10.65;;
68074;SDS011;54864;52.002;5.468;2023-07-22T00:26:02;13.35;;;9.68;;
68074;SDS011;54864;52.002;5.468;2023-07-22T00:27:03;16.17;;;10.70;;
68074;SDS011;54864;52.002;5.468;2023-07-22T00:28:06;15.32;;;10.77;;
68074;SDS011;54864;52.002;5.468;2023-07-22T00:29:07;16.30;;;11.35;;
68074;SDS011;54864;52.002;5.468;2023-07-22T00:30:09;17.42;;;11.00;;
68074;SDS011;54864;52.002;5.468;2023-07-22T00:31:12;15.93;;;10.50;;
68074;SDS011;54864;52.002;5.468;2023-07-22T00:32:14;17.00;;;11.88;;
68074;SDS011;54864;52.002;5.468;2023-07-22T00:33:15;19.23;;;12.10;;
68074;SDS011;54864;52.002;5.468;2023-07-22T00:34:17;16.20;;;10.85;;
68074;SDS011;54864;52.002;5.468;2023-07-22T00:35:18;15.83;;;11.50;;
68074;SDS011;54864;52.002;5.468;2023-07-22T00:36:25;16.20;;;11.32;;
68074;SDS011;54864;52.002;5.468;2023-07-22T00:37:32;17.63;;;11.38;;
68074;SDS011;54864;52.002;5.468;2023-07-22T00:38:33;16.63;;;11.45;;
68074;SDS011;54864;52.002;5.468;2023-07-22T00:39:34;16.08;;;11.55;;
68074;SDS011;54864;52.002;5.468;2023-07-22T00:40:37;16.02;;;11.63;;
68074;SDS011;54864;52.002;5.468;2023-07-22T00:41:38;15.98;;;10.93;;
68074;SDS011;54864;52.002;5.468;2023-07-22T00:42:40;18.38;;;11.77;;
68074;SDS011;54864;52.002;5.468;2023-07-22T00:43:41;18.27;;;12.18;;
68074;SDS011;54864;52.002;5.468;2023-07-22T00:44:43;16.93;;;12.23;;
68074;SDS011;54864;52.002;5.468;2023-07-22T00:45:44;23.13;;;12.13;;
68074;SDS011;54864;52.002;5.468;2023-07-22T00:46:47;17.52;;;11.93;;
68074;SDS011;54864;52.002;5.468;2023-07-22T00:47:48;18.08;;;12.27;;
68074;SDS011;54864;52.002;5.468;2023-07-22T00:48:51;17.65;;;12.13;;
68074;SDS011;54864;52.002;5.468;2023-07-22T00:49:52;17.30;;;12.18;;
68074;SDS011;54864;52.002;5.468;2023-07-22T00:50:54;19.90;;;13.20;;
68074;SDS011;54864;52.002;5.468;2023-07-22T00:51:55;19.63;;;13.15;;
68074;SDS011;54864;52.002;5.468;2023-07-22T00:52:58;20.52;;;14.20;;
68074;SDS011;54864;52.002;5.468;2023-07-22T00:53:59;19.20;;;12.60;;
68074;SDS011;54864;52.002;5.468;2023-07-22T00:55:01;19.75;;;13.02;;
68074;SDS011;54864;52.002;5.468;2023-07-22T00:56:02;20.88;;;13.57;;
68074;SDS011;54864;52.002;5.468;2023-07-22T00:57:06;20.80;;;13.13;;
68074;SDS011;54864;52.002;5.468;2023-07-22T00:58:07;20.67;;;13.15;;
68074;SDS011;54864;52.002;5.468;2023-07-22T00:59:09;18.05;;;13.27;;
68074;SDS011;54864;52.002;5.468;2023-07-22T01:00:13;19.48;;;13.82;;
68074;SDS011;54864;52.002;5.468;2023-07-22T01:01:16;21.65;;;14.35;;
68074;SDS011;54864;52.002;5.468;2023-07-22T01:02:18;21.00;;;13.87;;
68074;SDS011;54864;52.002;5.468;2023-07-22T01:03:26;19.83;;;13.80;;
68074;SDS011;54864;52.002;5.468;2023-07-22T01:04:32;22.05;;;14.30;;
68074;SDS011;54864;52.002;5.468;2023-07-22T01:05:35;20.17;;;13.13;;
68074;SDS011;54864;52.002;5.468;2023-07-22T01:06:37;19.55;;;13.75;;
68074;SDS011;54864;52.002;5.468;2023-07-22T01:07:39;18.75;;;12.98;;
68074;SDS011;54864;52.002;5.468;2023-07-22T01:08:40;20.48;;;13.60;;
68074;SDS011;54864;52.002;5.468;2023-07-22T01:09:42;18.35;;;12.55;;
68074;SDS011;54864;52.002;5.468;2023-07-22T01:10:43;20.60;;;13.60;;
68074;SDS011;54864;52.002;5.468;2023-07-22T01:11:45;19.88;;;13.40;;
68074;SDS011;54864;52.002;5.468;2023-07-22T01:12:45;21.25;;;13.05;;
68074;SDS011;54864;52.002;5.468;2023-07-22T01:13:47;18.83;;;13.48;;
68074;SDS011;54864;52.002;5.468;2023-07-22T01:14:48;21.00;;;13.25;;
68074;SDS011;54864;52.002;5.468;2023-07-22T01:15:50;21.08;;;13.50;;
68074;SDS011;54864;52.002;5.468;2023-07-22T01:16:51;22.83;;;14.15;;
68074;SDS011;54864;52.002;5.468;2023-07-22T01:17:53;20.55;;;13.95;;
68074;SDS011;54864;52.002;5.468;2023-07-22T01:18:56;21.58;;;14.63;;
68074;SDS011;54864;52.002;5.468;2023-07-22T01:19:57;20.08;;;13.55;;
68074;SDS011;54864;52.002;5.468;2023-07-22T01:20:59;22.92;;;13.95;;
68074;SDS011;54864;52.002;5.468;2023-07-22T01:22:02;21.77;;;13.98;;
68074;SDS011;54864;52.002;5.468;2023-07-22T01:23:07;22.40;;;13.90;;
68074;SDS011;54864;52.002;5.468;2023-07-22T01:24:10;22.38;;;14.77;;
68074;SDS011;54864;52.002;5.468;2023-07-22T01:25:12;24.77;;;14.82;;
68074;SDS011;54864;52.002;5.468;2023-07-22T01:26:32;25.48;;;15.07;;
68074;SDS011;54864;52.002;5.468;2023-07-22T01:27:33;26.13;;;14.85;;
68074;SDS011;54864;52.002;5.468;2023-07-22T01:29:01;21.80;;;14.60;;
68074;SDS011;54864;52.002;5.468;2023-07-22T01:30:22;23.15;;;14.80;;
68074;SDS011;54864;52.002;5.468;2023-07-22T01:31:43;25.35;;;15.05;;
68074;SDS011;54864;52.002;5.468;2023-07-22T01:32:49;20.27;;;13.90;;
68074;SDS011;54864;52.002;5.468;2023-07-22T01:34:09;23.13;;;14.68;;
68074;SDS011;54864;52.002;5.468;2023-07-22T01:35:12;21.52;;;13.95;;
68074;SDS011;54864;52.002;5.468;2023-07-22T01:36:13;20.05;;;13.55;;
68074;SDS011;54864;52.002;5.468;2023-07-22T01:37:15;21.95;;;14.75;;
68074;SDS011;54864;52.002;5.468;2023-07-22T01:38:17;22.23;;;14.45;;
68074;SDS011;54864;52.002;5.468;2023-07-22T01:39:20;22.63;;;14.75;;
68074;SDS011;54864;52.002;5.468;2023-07-22T01:40:41;22.17;;;15.27;;
68074;SDS011;54864;52.002;5.468;2023-07-22T01:41:43;22.08;;;15.02;;
68074;SDS011;54864;52.002;5.468;2023-07-22T01:43:03;20.35;;;13.50;;
68074;SDS011;54864;52.002;5.468;2023-07-22T01:44:04;20.42;;;13.40;;
68074;SDS011;54864;52.002;5.468;2023-07-22T01:45:06;23.85;;;15.75;;
68074;SDS011;54864;52.002;5.468;2023-07-22T01:46:08;22.25;;;15.25;;
68074;SDS011;54864;52.002;5.468;2023-07-22T01:47:28;20.88;;;15.05;;
68074;SDS011;54864;52.002;5.468;2023-07-22T01:48:29;22.98;;;15.32;;
68074;SDS011;54864;52.002;5.468;2023-07-22T01:49:39;25.17;;;15.73;;
68074;SDS011;54864;52.002;5.468;2023-07-22T01:50:59;22.50;;;14.73;;
68074;SDS011;54864;52.002;5.468;2023-07-22T01:52:00;24.75;;;16.02;;
68074;SDS011;54864;52.002;5.468;2023-07-22T01:53:21;24.53;;;14.93;;
68074;SDS011;54864;52.002;5.468;2023-07-22T01:54:29;23.77;;;16.05;;
68074;SDS011;54864;52.002;5.468;2023-07-22T01:55:48;21.58;;;15.18;;
68074;SDS011;54864;52.002;5.468;2023-07-22T01:57:08;24.77;;;15.75;;
68074;SDS011;54864;52.002;5.468;2023-07-22T01:58:10;22.37;;;15.37;;
68074;SDS011;54864;52.002;5.468;2023-07-22T01:59:26;24.07;;;16.20;;
68074;SDS011;54864;52.002;5.468;2023-07-22T02:00:49;22.25;;;15.63;;
68074;SDS011;54864;52.002;5.468;2023-07-22T02:02:10;25.52;;;16.38;;
68074;SDS011;54864;52.002;5.468;2023-07-22T02:03:10;27.77;;;16.15;;
68074;SDS011;54864;52.002;5.468;2023-07-22T02:04:21;27.13;;;16.75;;
68074;SDS011;54864;52.002;5.468;2023-07-22T02:05:40;26.02;;;16.85;;
68074;SDS011;54864;52.002;5.468;2023-07-22T02:06:42;26.35;;;16.33;;
68074;SDS011;54864;52.002;5.468;2023-07-22T02:07:44;27.08;;;17.10;;
68074;SDS011;54864;52.002;5.468;2023-07-22T02:08:48;26.42;;;17.23;;
68074;SDS011;54864;52.002;5.468;2023-07-22T02:10:07;24.52;;;16.42;;
68074;SDS011;54864;52.002;5.468;2023-07-22T02:11:11;25.73;;;16.75;;
68074;SDS011;54864;52.002;5.468;2023-07-22T02:12:31;26.25;;;17.35;;
68074;SDS011;54864;52.002;5.468;2023-07-22T02:13:52;25.08;;;16.85;;
68074;SDS011;54864;52.002;5.468;2023-07-22T02:14:54;26.77;;;15.95;;
68074;SDS011;54864;52.002;5.468;2023-07-22T02:16:13;26.77;;;16.45;;
68074;SDS011;54864;52.002;5.468;2023-07-22T02:17:35;26.80;;;16.55;;
68074;SDS011;54864;52.002;5.468;2023-07-22T02:18:54;25.17;;;16.90;;
68074;SDS011;54864;52.002;5.468;2023-07-22T02:20:15;26.67;;;17.45;;
68074;SDS011;54864;52.002;5.468;2023-07-22T02:21:18;26.55;;;17.05;;
68074;SDS011;54864;52.002;5.468;2023-07-22T02:22:22;27.35;;;17.48;;
68074;SDS011;54864;52.002;5.468;2023-07-22T02:23:25;25.02;;;16.30;;
68074;SDS011;54864;52.002;5.468;2023-07-22T02:24:47;27.02;;;17.35;;
68074;SDS011;54864;52.002;5.468;2023-07-22T02:26:07;26.27;;;17.52;;
68074;SDS011;54864;52.002;5.468;2023-07-22T02:27:11;28.38;;;18.58;;
68074;SDS011;54864;52.002;5.468;2023-07-22T02:28:31;28.17;;;17.23;;
68074;SDS011;54864;52.002;5.468;2023-07-22T02:29:33;26.02;;;17.60;;
68074;SDS011;54864;52.002;5.468;2023-07-22T02:30:52;27.85;;;17.13;;
68074;SDS011;54864;52.002;5.468;2023-07-22T02:31:54;26.98;;;17.50;;
68074;SDS011;54864;52.002;5.468;2023-07-22T02:33:14;26.57;;;18.07;;
68074;SDS011;54864;52.002;5.468;2023-07-22T02:34:17;30.90;;;19.83;;
68074;SDS011;54864;52.002;5.468;2023-07-22T02:35:36;27.95;;;18.80;;
68074;SDS011;54864;52.002;5.468;2023-07-22T02:36:43;25.10;;;17.90;;
68074;SDS011;54864;52.002;5.468;2023-07-22T02:37:44;29.42;;;18.63;;
68074;SDS011;54864;52.002;5.468;2023-07-22T02:38:46;27.13;;;17.83;;
68074;SDS011;54864;52.002;5.468;2023-07-22T02:39:55;29.17;;;17.90;;
68074;SDS011;54864;52.002;5.468;2023-07-22T02:41:14;30.20;;;18.73;;
68074;SDS011;54864;52.002;5.468;2023-07-22T02:42:34;28.33;;;17.98;;
68074;SDS011;54864;52.002;5.468;2023-07-22T02:43:35;27.65;;;17.88;;
68074;SDS011;54864;52.002;5.468;2023-07-22T02:44:55;28.85;;;18.00;;
68074;SDS011;54864;52.002;5.468;2023-07-22T02:46:02;26.65;;;16.58;;
68074;SDS011;54864;52.002;5.468;2023-07-22T02:47:09;30.02;;;17.98;;
68074;SDS011;54864;52.002;5.468;2023-07-22T02:48:10;30.05;;;18.42;;
68074;SDS011;54864;52.002;5.468;2023-07-22T02:49:11;27.90;;;18.00;;
68074;SDS011;54864;52.002;5.468;2023-07-22T02:50:12;29.50;;;18.23;;
68074;SDS011;54864;52.002;5.468;2023-07-22T02:51:32;30.85;;;18.83;;
68074;SDS011;54864;52.002;5.468;2023-07-22T02:52:33;29.70;;;18.15;;
68074;SDS011;54864;52.002;5.468;2023-07-22T02:53:54;30.20;;;18.52;;
68074;SDS011;54864;52.002;5.468;2023-07-22T02:55:06;28.67;;;18.23;;
68074;SDS011;54864;52.002;5.468;2023-07-22T02:56:10;29.55;;;18.48;;
68074;SDS011;54864;52.002;5.468;2023-07-22T02:57:14;29.77;;;18.08;;
68074;SDS011;54864;52.002;5.468;2023-07-22T02:58:18;28.13;;;18.27;;
68074;SDS011;54864;52.002;5.468;2023-07-22T02:59:20;30.10;;;18.48;;
68074;SDS011;54864;52.002;5.468;2023-07-22T03:00:22;30.90;;;18.85;;
68074;SDS011;54864;52.002;5.468;2023-07-22T03:01:26;32.30;;;18.55;;
68074;SDS011;54864;52.002;5.468;2023-07-22T03:02:30;30.48;;;17.92;;
68074;SDS011;54864;52.002;5.468;2023-07-22T03:03:31;29.65;;;18.75;;
68074;SDS011;54864;52.002;5.468;2023-07-22T03:04:33;28.75;;;18.17;;
68074;SDS011;54864;52.002;5.468;2023-07-22T03:05:34;27.97;;;18.10;;
68074;SDS011;54864;52.002;5.468;2023-07-22T03:06:36;27.27;;;17.77;;
68074;SDS011;54864;52.002;5.468;2023-07-22T03:07:37;26.98;;;17.67;;
68074;SDS011;54864;52.002;5.468;2023-07-22T03:08:39;27.90;;;17.92;;
68074;SDS011;54864;52.002;5.468;2023-07-22T03:09:40;27.55;;;18.90;;
68074;SDS011;54864;52.002;5.468;2023-07-22T03:10:47;27.98;;;17.48;;
68074;SDS011;54864;52.002;5.468;2023-07-22T03:11:48;26.23;;;17.40;;
68074;SDS011;54864;52.002;5.468;2023-07-22T03:12:50;29.52;;;18.77;;
68074;SDS011;54864;52.002;5.468;2023-07-22T03:13:54;26.05;;;17.45;;
68074;SDS011;54864;52.002;5.468;2023-07-22T03:14:55;26.23;;;17.67;;
68074;SDS011;54864;52.002;5.468;2023-07-22T03:15:57;26.98;;;17.42;;
68074;SDS011;54864;52.002;5.468;2023-07-22T03:16:58;24.55;;;16.25;;
68074;SDS011;54864;52.002;5.468;2023-07-22T03:18:00;27.42;;;18.30;;
68074;SDS011;54864;52.002;5.468;2023-07-22T03:19:01;28.33;;;18.58;;
68074;SDS011;54864;52.002;5.468;2023-07-22T03:20:02;23.92;;;17.23;;
68074;SDS011;54864;52.002;5.468;2023-07-22T03:21:08;25.38;;;16.83;;
68074;SDS011;54864;52.002;5.468;2023-07-22T03:22:09;29.02;;;17.73;;
68074;SDS011;54864;52.002;5.468;2023-07-22T03:23:11;26.42;;;17.55;;
68074;SDS011;54864;52.002;5.468;2023-07-22T03:24:11;26.03;;;17.40;;
68074;SDS011;54864;52.002;5.468;2023-07-22T03:25:15;30.42;;;18.17;;
68074;SDS011;54864;52.002;5.468;2023-07-22T03:26:19;29.30;;;18.52;;
68074;SDS011;54864;52.002;5.468;2023-07-22T03:27:24;27.42;;;18.02;;
68074;SDS011;54864;52.002;5.468;2023-07-22T03:28:24;27.37;;;17.67;;
68074;SDS011;54864;52.002;5.468;2023-07-22T03:29:30;27.33;;;17.45;;
68074;SDS011;54864;52.002;5.468;2023-07-22T03:30:30;27.00;;;18.17;;
68074;SDS011;54864;52.002;5.468;2023-07-22T03:31:33;28.60;;;17.88;;
68074;SDS011;54864;52.002;5.468;2023-07-22T03:32:34;27.17;;;17.60;;
68074;SDS011;54864;52.002;5.468;2023-07-22T03:33:39;27.85;;;18.15;;
68074;SDS011;54864;52.002;5.468;2023-07-22T03:34:39;29.23;;;18.63;;
68074;SDS011;54864;52.002;5.468;2023-07-22T03:35:41;28.85;;;18.73;;
68074;SDS011;54864;52.002;5.468;2023-07-22T03:36:42;30.40;;;18.75;;
68074;SDS011;54864;52.002;5.468;2023-07-22T03:37:44;25.88;;;17.83;;
68074;SDS011;54864;52.002;5.468;2023-07-22T03:38:44;27.90;;;17.23;;
68074;SDS011;54864;52.002;5.468;2023-07-22T03:39:46;26.77;;;18.00;;
68074;SDS011;54864;52.002;5.468;2023-07-22T03:40:47;28.33;;;18.17;;
68074;SDS011;54864;52.002;5.468;2023-07-22T03:41:50;27.40;;;17.88;;
68074;SDS011;54864;52.002;5.468;2023-07-22T03:42:50;25.95;;;18.15;;
68074;SDS011;54864;52.002;5.468;2023-07-22T03:43:52;26.55;;;17.85;;
68074;SDS011;54864;52.002;5.468;2023-07-22T03:44:53;25.67;;;17.80;;
68074;SDS011;54864;52.002;5.468;2023-07-22T03:45:55;28.83;;;18.30;;
68074;SDS011;54864;52.002;5.468;2023-07-22T03:46:56;25.25;;;17.25;;
68074;SDS011;54864;52.002;5.468;2023-07-22T03:47:58;25.67;;;17.63;;
68074;SDS011;54864;52.002;5.468;2023-07-22T03:49:00;26.55;;;17.15;;
68074;SDS011;54864;52.002;5.468;2023-07-22T03:50:02;24.60;;;17.10;;
68074;SDS011;54864;52.002;5.468;2023-07-22T03:51:03;27.67;;;17.35;;
68074;SDS011;54864;52.002;5.468;2023-07-22T03:52:05;29.20;;;17.57;;
68074;SDS011;54864;52.002;5.468;2023-07-22T03:53:07;25.90;;;17.50;;
68074;SDS011;54864;52.002;5.468;2023-07-22T03:54:08;27.75;;;18.10;;
68074;SDS011;54864;52.002;5.468;2023-07-22T03:55:09;26.98;;;16.73;;
68074;SDS011;54864;52.002;5.468;2023-07-22T03:56:11;30.10;;;17.90;;
68074;SDS011;54864;52.002;5.468;2023-07-22T03:57:13;28.20;;;17.30;;
68074;SDS011;54864;52.002;5.468;2023-07-22T03:58:14;31.90;;;19.33;;
68074;SDS011;54864;52.002;5.468;2023-07-22T03:59:16;26.90;;;17.90;;
68074;SDS011;54864;52.002;5.468;2023-07-22T04:00:17;26.15;;;18.35;;
68074;SDS011;54864;52.002;5.468;2023-07-22T04:01:30;28.45;;;18.63;;
68074;SDS011;54864;52.002;5.468;2023-07-22T04:02:33;28.17;;;18.38;;
68074;SDS011;54864;52.002;5.468;2023-07-22T04:03:34;28.38;;;18.98;;
68074;SDS011;54864;52.002;5.468;2023-07-22T04:04:36;28.50;;;18.90;;
68074;SDS011;54864;52.002;5.468;2023-07-22T04:05:36;30.75;;;19.40;;
68074;SDS011;54864;52.002;5.468;2023-07-22T04:06:38;27.63;;;18.77;;
68074;SDS011;54864;52.002;5.468;2023-07-22T04:07:39;28.53;;;18.17;;
68074;SDS011;54864;52.002;5.468;2023-07-22T04:08:41;28.63;;;18.80;;
68074;SDS011;54864;52.002;5.468;2023-07-22T04:09:41;30.15;;;19.45;;
68074;SDS011;54864;52.002;5.468;2023-07-22T04:10:50;28.48;;;18.50;;
68074;SDS011;54864;52.002;5.468;2023-07-22T04:11:52;30.33;;;19.67;;
68074;SDS011;54864;52.002;5.468;2023-07-22T04:12:55;29.27;;;18.83;;
68074;SDS011;54864;52.002;5.468;2023-07-22T04:13:56;24.77;;;17.08;;
68074;SDS011;54864;52.002;5.468;2023-07-22T04:14:57;27.15;;;17.83;;
68074;SDS011;54864;52.002;5.468;2023-07-22T04:15:58;27.25;;;18.02;;
68074;SDS011;54864;52.002;5.468;2023-07-22T04:17:03;30.88;;;18.63;;
68074;SDS011;54864;52.002;5.468;2023-07-22T04:18:05;26.90;;;18.08;;
68074;SDS011;54864;52.002;5.468;2023-07-22T04:19:08;28.63;;;18.63;;
68074;SDS011;54864;52.002;5.468;2023-07-22T04:20:11;26.10;;;17.85;;
68074;SDS011;54864;52.002;5.468;2023-07-22T04:21:11;29.13;;;18.63;;
68074;SDS011;54864;52.002;5.468;2023-07-22T04:22:13;28.33;;;18.33;;
68074;SDS011;54864;52.002;5.468;2023-07-22T04:23:17;30.77;;;19.85;;
68074;SDS011;54864;52.002;5.468;2023-07-22T04:24:21;32.45;;;19.50;;
68074;SDS011;54864;52.002;5.468;2023-07-22T04:25:25;32.92;;;20.17;;
68074;SDS011;54864;52.002;5.468;2023-07-22T04:26:27;29.73;;;18.95;;
68074;SDS011;54864;52.002;5.468;2023-07-22T04:27:31;30.92;;;19.17;;
68074;SDS011;54864;52.002;5.468;2023-07-22T04:28:34;27.65;;;18.15;;
68074;SDS011;54864;52.002;5.468;2023-07-22T04:29:35;29.92;;;19.05;;
68074;SDS011;54864;52.002;5.468;2023-07-22T04:30:39;28.95;;;18.80;;
68074;SDS011;54864;52.002;5.468;2023-07-22T04:31:40;27.27;;;17.53;;
68074;SDS011;54864;52.002;5.468;2023-07-22T04:32:42;26.90;;;17.95;;
68074;SDS011;54864;52.002;5.468;2023-07-22T04:33:43;30.77;;;18.30;;
68074;SDS011;54864;52.002;5.468;2023-07-22T04:34:45;30.75;;;18.08;;
68074;SDS011;54864;52.002;5.468;2023-07-22T04:35:46;29.88;;;18.58;;
68074;SDS011;54864;52.002;5.468;2023-07-22T04:36:48;28.42;;;19.05;;
68074;SDS011;54864;52.002;5.468;2023-07-22T04:37:49;27.25;;;17.33;;
68074;SDS011;54864;52.002;5.468;2023-07-22T04:38:50;28.73;;;18.27;;
68074;SDS011;54864;52.002;5.468;2023-07-22T04:39:54;32.80;;;18.38;;
68074;SDS011;54864;52.002;5.468;2023-07-22T04:41:02;25.73;;;18.30;;
68074;SDS011;54864;52.002;5.468;2023-07-22T04:42:04;34.53;;;18.73;;
68074;SDS011;54864;52.002;5.468;2023-07-22T04:43:06;28.90;;;18.38;;
68074;SDS011;54864;52.002;5.468;2023-07-22T04:44:26;32.47;;;20.02;;
68074;SDS011;54864;52.002;5.468;2023-07-22T04:45:31;29.65;;;19.55;;
68074;SDS011;54864;52.002;5.468;2023-07-22T04:46:49;27.92;;;17.55;;
68074;SDS011;54864;52.002;5.468;2023-07-22T04:48:10;29.42;;;18.77;;
68074;SDS011;54864;52.002;5.468;2023-07-22T04:49:11;28.63;;;18.02;;
68074;SDS011;54864;52.002;5.468;2023-07-22T04:50:25;29.98;;;19.02;;
68074;SDS011;54864;52.002;5.468;2023-07-22T04:51:44;28.05;;;18.05;;
68074;SDS011;54864;52.002;5.468;2023-07-22T04:53:05;31.90;;;19.85;;
68074;SDS011;54864;52.002;5.468;2023-07-22T04:54:25;30.35;;;18.58;;
68074;SDS011;54864;52.002;5.468;2023-07-22T04:55:29;32.22;;;18.95;;
68074;SDS011;54864;52.002;5.468;2023-07-22T04:56:48;28.95;;;18.33;;
68074;SDS011;54864;52.002;5.468;2023-07-22T04:58:09;26.35;;;17.20;;
68074;SDS011;54864;52.002;5.468;2023-07-22T04:59:22;30.10;;;18.77;;
68074;SDS011;54864;52.002;5.468;2023-07-22T05:00:28;33.00;;;19.73;;
68074;SDS011;54864;52.002;5.468;2023-07-22T05:01:29;28.85;;;18.90;;
68074;SDS011;54864;52.002;5.468;2023-07-22T05:02:49;33.45;;;19.60;;
68074;SDS011;54864;52.002;5.468;2023-07-22T05:03:52;33.97;;;19.77;;
68074;SDS011;54864;52.002;5.468;2023-07-22T05:04:55;33.60;;;19.02;;
68074;SDS011;54864;52.002;5.468;2023-07-22T05:05:56;33.17;;;18.95;;
68074;SDS011;54864;52.002;5.468;2023-07-22T05:07:17;32.15;;;19.33;;
68074;SDS011;54864;52.002;5.468;2023-07-22T05:08:18;31.83;;;20.17;;
68074;SDS011;54864;52.002;5.468;2023-07-22T05:09:31;34.20;;;21.05;;
68074;SDS011;54864;52.002;5.468;2023-07-22T05:10:51;36.10;;;20.35;;
68074;SDS011;54864;52.002;5.468;2023-07-22T05:11:53;33.33;;;19.73;;
68074;SDS011;54864;52.002;5.468;2023-07-22T05:13:12;33.55;;;20.52;;
68074;SDS011;54864;52.002;5.468;2023-07-22T05:14:14;32.80;;;19.83;;
68074;SDS011;54864;52.002;5.468;2023-07-22T05:15:15;32.30;;;21.07;;
68074;SDS011;54864;52.002;5.468;2023-07-22T05:16:17;31.77;;;19.55;;
68074;SDS011;54864;52.002;5.468;2023-07-22T05:17:38;31.27;;;20.55;;
68074;SDS011;54864;52.002;5.468;2023-07-22T05:18:57;36.38;;;21.35;;
68074;SDS011;54864;52.002;5.468;2023-07-22T05:19:59;33.95;;;21.17;;
68074;SDS011;54864;52.002;5.468;2023-07-22T05:21:18;34.38;;;20.73;;
68074;SDS011;54864;52.002;5.468;2023-07-22T05:22:39;35.25;;;21.10;;
68074;SDS011;54864;52.002;5.468;2023-07-22T05:23:40;35.58;;;20.15;;
68074;SDS011;54864;52.002;5.468;2023-07-22T05:24:45;35.50;;;20.95;;
68074;SDS011;54864;52.002;5.468;2023-07-22T05:26:05;37.67;;;21.77;;
68074;SDS011;54864;52.002;5.468;2023-07-22T05:27:06;34.75;;;20.67;;
68074;SDS011;54864;52.002;5.468;2023-07-22T05:28:26;33.83;;;20.40;;
68074;SDS011;54864;52.002;5.468;2023-07-22T05:29:34;34.80;;;20.48;;
68074;SDS011;54864;52.002;5.468;2023-07-22T05:30:34;35.63;;;21.73;;
68074;SDS011;54864;52.002;5.468;2023-07-22T05:31:56;33.22;;;19.98;;
68074;SDS011;54864;52.002;5.468;2023-07-22T05:32:57;35.60;;;21.85;;
68074;SDS011;54864;52.002;5.468;2023-07-22T05:33:59;32.97;;;20.13;;
68074;SDS011;54864;52.002;5.468;2023-07-22T05:34:59;38.83;;;22.10;;
68074;SDS011;54864;52.002;5.468;2023-07-22T05:36:07;34.92;;;21.48;;
68074;SDS011;54864;52.002;5.468;2023-07-22T05:37:11;36.22;;;21.17;;
68074;SDS011;54864;52.002;5.468;2023-07-22T05:38:15;36.87;;;20.97;;
68074;SDS011;54864;52.002;5.468;2023-07-22T05:39:19;38.92;;;22.30;;
68074;SDS011;54864;52.002;5.468;2023-07-22T05:40:22;38.97;;;22.55;;
68074;SDS011;54864;52.002;5.468;2023-07-22T05:41:41;34.88;;;21.58;;
68074;SDS011;54864;52.002;5.468;2023-07-22T05:43:02;37.85;;;22.77;;
68074;SDS011;54864;52.002;5.468;2023-07-22T05:44:21;38.75;;;21.73;;
68074;SDS011;54864;52.002;5.468;2023-07-22T05:45:26;38.90;;;21.65;;
68074;SDS011;54864;52.002;5.468;2023-07-22T05:46:45;38.17;;;22.33;;
68074;SDS011;54864;52.002;5.468;2023-07-22T05:48:07;37.05;;;22.17;;
68074;SDS011;54864;52.002;5.468;2023-07-22T05:49:20;34.75;;;21.70;;
68074;SDS011;54864;52.002;5.468;2023-07-22T05:50:24;37.72;;;22.48;;
68074;SDS011;54864;52.002;5.468;2023-07-22T05:51:26;36.85;;;22.77;;
68074;SDS011;54864;52.002;5.468;2023-07-22T05:52:46;38.50;;;23.27;;
68074;SDS011;54864;52.002;5.468;2023-07-22T05:53:48;38.13;;;22.33;;
68074;SDS011;54864;52.002;5.468;2023-07-22T05:55:08;38.45;;;22.65;;
68074;SDS011;54864;52.002;5.468;2023-07-22T05:56:09;38.15;;;23.63;;
68074;SDS011;54864;52.002;5.468;2023-07-22T05:57:29;46.17;;;23.88;;
68074;SDS011;54864;52.002;5.468;2023-07-22T05:58:49;38.53;;;23.05;;
68074;SDS011;54864;52.002;5.468;2023-07-22T05:59:50;44.22;;;24.48;;
68074;SDS011;54864;52.002;5.468;2023-07-22T06:00:57;38.63;;;23.92;;
68074;SDS011;54864;52.002;5.468;2023-07-22T06:01:59;37.28;;;23.17;;
68074;SDS011;54864;52.002;5.468;2023-07-22T06:03:20;37.83;;;23.55;;
68074;SDS011;54864;52.002;5.468;2023-07-22T06:04:40;42.78;;;23.60;;
68074;SDS011;54864;52.002;5.468;2023-07-22T06:05:50;44.83;;;24.48;;
68074;SDS011;54864;52.002;5.468;2023-07-22T06:07:11;40.00;;;23.75;;
68074;SDS011;54864;52.002;5.468;2023-07-22T06:08:11;43.70;;;24.65;;
68074;SDS011;54864;52.002;5.468;2023-07-22T06:09:13;41.60;;;23.58;;
68074;SDS011;54864;52.002;5.468;2023-07-22T06:10:14;42.40;;;24.63;;
68074;SDS011;54864;52.002;5.468;2023-07-22T06:11:33;40.50;;;25.07;;
68074;SDS011;54864;52.002;5.468;2023-07-22T06:12:54;41.17;;;23.75;;
68074;SDS011;54864;52.002;5.468;2023-07-22T06:13:55;40.95;;;24.70;;
68074;SDS011;54864;52.002;5.468;2023-07-22T06:14:57;40.33;;;24.40;;
68074;SDS011;54864;52.002;5.468;2023-07-22T06:15:58;44.80;;;25.07;;
68074;SDS011;54864;52.002;5.468;2023-07-22T06:16:59;42.83;;;25.75;;
68074;SDS011;54864;52.002;5.468;2023-07-22T06:18:20;43.40;;;25.30;;
68074;SDS011;54864;52.002;5.468;2023-07-22T06:19:43;40.95;;;24.90;;
68074;SDS011;54864;52.002;5.468;2023-07-22T06:20:44;43.35;;;24.42;;
68074;SDS011;54864;52.002;5.468;2023-07-22T06:22:05;39.50;;;24.63;;
68074;SDS011;54864;52.002;5.468;2023-07-22T06:23:06;40.45;;;24.90;;
68074;SDS011;54864;52.002;5.468;2023-07-22T06:24:08;43.17;;;25.73;;
68074;SDS011;54864;52.002;5.468;2023-07-22T06:25:09;38.85;;;25.13;;
68074;SDS011;54864;52.002;5.468;2023-07-22T06:26:28;41.27;;;24.07;;